createdAt,value
2023-03-28T00:02:08.445Z,31.30
2023-03-28T00:04:37.302Z,31.30
2023-03-28T00:07:05.415Z,31.30
2023-03-28T00:09:32.894Z,31.30
2023-03-28T00:11:59.746Z,31.30
2023-03-28T00:14:26.596Z,31.30
2023-03-28T00:16:53.481Z,31.20
2023-03-28T00:19:20.675Z,31.20
2023-03-28T00:21:50.017Z,31.20
2023-03-28T00:24:21.372Z,31.20
2023-03-28T00:26:49.707Z,31.20
2023-03-28T00:29:21.093Z,31.10
2023-03-28T00:31:49.642Z,31.10
2023-03-28T00:34:17.552Z,31.00
2023-03-28T00:36:44.427Z,30.90
2023-03-28T00:39:11.447Z,30.90
2023-03-28T00:41:42.319Z,30.80
2023-03-28T00:44:40.346Z,30.80
2023-03-28T00:47:15.326Z,30.70
2023-03-28T00:49:46.750Z,30.60
2023-03-28T00:52:15.477Z,30.50
2023-03-28T00:54:42.364Z,30.50
2023-03-28T00:57:09.899Z,30.50
2023-03-28T00:59:38.714Z,30.50
2023-03-28T01:02:06.196Z,30.40
2023-03-28T01:04:53.715Z,30.40
2023-03-28T01:07:20.701Z,30.40
2023-03-28T01:09:49.027Z,30.40
2023-03-28T01:12:17.568Z,30.40
2023-03-28T01:14:46.540Z,30.30
2023-03-28T01:17:13.711Z,30.30
2023-03-28T01:19:59.047Z,30.30
2023-03-28T01:22:57.196Z,30.40
2023-03-28T01:25:42.277Z,30.50
2023-03-28T01:28:35.731Z,30.50
2023-03-28T01:31:24.219Z,30.60
2023-03-28T01:33:59.785Z,30.50
2023-03-28T01:36:51.862Z,30.50
2023-03-28T01:39:33.223Z,30.60
2023-03-28T01:42:37.011Z,30.60
2023-03-28T01:45:08.784Z,30.40
2023-03-28T01:47:48.898Z,30.40
2023-03-28T01:50:25.939Z,30.30
2023-03-28T01:53:04.961Z,30.20
2023-03-28T01:56:07.870Z,30.10
2023-03-28T01:58:48.031Z,30.10
2023-03-28T02:01:22.987Z,30.10
2023-03-28T02:03:54.401Z,30.00
2023-03-28T02:06:23.021Z,30.10
2023-03-28T02:08:52.532Z,30.10
2023-03-28T02:11:21.670Z,30.10
2023-03-28T02:14:01.834Z,30.10
2023-03-28T02:16:32.163Z,30.10
2023-03-28T02:19:00.527Z,30.80
2023-03-28T02:21:59.120Z,30.00
2023-03-28T02:24:25.997Z,30.00
2023-03-28T02:26:54.093Z,30.00
2023-03-28T02:29:21.324Z,30.00
2023-03-28T02:31:49.244Z,30.00
2023-03-28T02:34:16.667Z,30.00
2023-03-28T02:36:46.994Z,30.00
2023-03-28T02:39:19.756Z,29.90
2023-03-28T02:41:52.370Z,30.00
2023-03-28T02:44:41.148Z,30.00
2023-03-28T02:47:41.735Z,29.90
2023-03-28T02:50:36.611Z,29.90
2023-03-28T02:53:22.231Z,29.90
2023-03-28T02:55:58.013Z,29.90
2023-03-28T02:58:34.208Z,29.90
2023-03-28T03:01:03.420Z,29.90
2023-03-28T03:03:31.214Z,29.90
2023-03-28T03:05:58.370Z,29.80
2023-03-28T03:08:27.764Z,29.70
2023-03-28T03:10:54.526Z,29.70
2023-03-28T03:13:21.330Z,29.60
2023-03-28T03:15:48.134Z,29.60
2023-03-28T03:18:14.946Z,29.60
2023-03-28T03:20:45.622Z,29.60
2023-03-28T03:23:13.412Z,29.60
2023-03-28T03:25:40.984Z,29.60
2023-03-28T03:28:07.778Z,29.70
2023-03-28T03:30:35.044Z,29.90
2023-03-28T03:33:01.967Z,29.90
2023-03-28T03:35:33.223Z,29.90
2023-03-28T03:38:00.837Z,29.90
2023-03-28T03:40:27.838Z,29.90
2023-03-28T03:42:54.651Z,29.90
2023-03-28T03:45:22.051Z,30.00
2023-03-28T03:47:48.867Z,29.80
2023-03-28T03:50:15.834Z,29.80
2023-03-28T03:52:42.691Z,29.80
2023-03-28T03:55:09.921Z,29.80
2023-03-28T03:57:36.809Z,29.80
2023-03-28T04:00:11.941Z,29.70
2023-03-28T04:02:39.708Z,29.70
2023-03-28T04:05:08.449Z,29.70
2023-03-28T04:07:35.729Z,29.80
2023-03-28T04:10:03.091Z,29.80
2023-03-28T04:12:30.150Z,29.80
2023-03-28T04:14:57.080Z,29.90
2023-03-28T04:17:28.740Z,29.80
2023-03-28T04:19:56.134Z,29.90
2023-03-28T04:22:23.882Z,30.00
2023-03-28T04:24:53.368Z,30.00
2023-03-28T04:27:20.225Z,30.00
2023-03-28T04:29:47.025Z,30.00
2023-03-28T04:32:13.819Z,30.00
2023-03-28T04:34:40.582Z,30.00
2023-03-28T04:37:09.118Z,30.00
2023-03-28T04:39:35.992Z,29.90
2023-03-28T04:42:05.991Z,29.90
2023-03-28T04:44:32.821Z,29.80
2023-03-28T04:46:59.985Z,29.90
2023-03-28T04:49:27.105Z,29.90
2023-03-28T04:51:53.919Z,29.90
2023-03-28T04:54:20.799Z,29.90
2023-03-28T04:56:50.882Z,30.00
2023-03-28T04:59:18.657Z,30.00
2023-03-28T05:01:49.513Z,30.00
2023-03-28T05:04:17.991Z,30.00
2023-03-28T05:06:46.473Z,30.00
2023-03-28T05:09:14.263Z,30.00
2023-03-28T05:11:41.446Z,30.00
2023-03-28T05:14:08.524Z,30.00
2023-03-28T05:16:35.815Z,30.00
2023-03-28T05:19:02.736Z,30.00
2023-03-28T05:21:29.606Z,30.00
2023-03-28T05:23:56.801Z,30.00
2023-03-28T05:26:23.733Z,29.90
2023-03-28T05:28:50.556Z,29.90
2023-03-28T05:31:18.235Z,29.90
2023-03-28T05:33:45.325Z,29.90
2023-03-28T05:36:12.939Z,29.80
2023-03-28T05:38:39.787Z,29.90
2023-03-28T05:41:06.939Z,30.00
2023-03-28T05:43:33.878Z,30.10
2023-03-28T05:46:01.151Z,30.20
2023-03-28T05:48:28.152Z,30.20
2023-03-28T05:50:55.086Z,30.20
2023-03-28T05:53:21.937Z,30.20
2023-03-28T05:55:49.868Z,30.20
2023-03-28T05:58:17.499Z,30.20
2023-03-28T06:00:44.652Z,30.10
2023-03-28T06:03:16.784Z,30.00
2023-03-28T06:05:45.039Z,30.00
2023-03-28T06:08:12.088Z,30.00
2023-03-28T06:10:39.063Z,30.00
2023-03-28T06:13:06.208Z,29.90
2023-03-28T06:15:33.347Z,29.90
2023-03-28T06:18:00.411Z,29.90
2023-03-28T06:20:27.357Z,29.90
2023-03-28T06:22:54.091Z,29.90
2023-03-28T06:25:21.539Z,29.90
2023-03-28T06:27:48.474Z,29.90
2023-03-28T06:30:15.662Z,29.90
2023-03-28T06:32:42.505Z,29.90
2023-03-28T06:35:09.526Z,29.90
2023-03-28T06:37:36.376Z,29.90
2023-03-28T06:40:03.661Z,29.90
2023-03-28T06:42:30.780Z,29.90
2023-03-28T06:44:57.556Z,29.70
2023-03-28T06:47:24.345Z,29.70
2023-03-28T06:49:51.104Z,29.70
2023-03-28T06:52:17.919Z,29.70
2023-03-28T06:54:46.047Z,29.70
2023-03-28T06:57:15.811Z,29.70
2023-03-28T06:59:42.686Z,29.90
2023-03-28T07:02:12.554Z,29.90
2023-03-28T07:04:39.345Z,30.00
2023-03-28T07:07:07.818Z,30.00
2023-03-28T07:09:35.239Z,30.00
2023-03-28T07:12:02.640Z,30.00
2023-03-28T07:14:30.152Z,30.10
2023-03-28T07:16:57.193Z,30.00
2023-03-28T07:19:24.987Z,30.10
2023-03-28T07:21:53.014Z,30.10
2023-03-28T07:24:20.129Z,30.10
2023-03-28T07:26:46.874Z,30.20
2023-03-28T07:29:13.639Z,30.30
2023-03-28T07:31:40.841Z,30.30
2023-03-28T07:34:07.683Z,30.30
2023-03-28T07:36:34.446Z,30.30
2023-03-28T07:39:01.371Z,30.40
2023-03-28T07:41:28.355Z,30.40
2023-03-28T07:43:55.319Z,30.40
2023-03-28T07:46:23.772Z,30.50
2023-03-28T07:48:50.655Z,30.30
2023-03-28T07:51:18.447Z,30.30
2023-03-28T07:53:46.003Z,30.50
2023-03-28T07:56:12.914Z,30.50
2023-03-28T07:58:41.408Z,30.40
2023-03-28T08:01:12.078Z,30.40
2023-03-28T08:03:40.247Z,30.30
2023-03-28T08:06:16.577Z,30.20
2023-03-28T08:08:51.964Z,30.10
2023-03-28T08:11:18.868Z,30.00
2023-03-28T08:13:45.765Z,29.80
2023-03-28T08:16:12.682Z,29.80
2023-03-28T08:18:39.566Z,29.80
2023-03-28T08:21:08.044Z,29.80
2023-03-28T08:23:35.004Z,29.90
2023-03-28T08:26:06.373Z,29.80
2023-03-28T08:28:37.692Z,29.60
2023-03-28T08:31:14.128Z,29.60
2023-03-28T08:33:42.797Z,29.30
2023-03-28T08:36:14.442Z,29.20
2023-03-28T08:38:42.564Z,28.90
2023-03-28T08:41:29.229Z,28.80
2023-03-28T08:43:59.169Z,29.00
2023-03-28T08:46:30.446Z,29.10
2023-03-28T08:49:01.022Z,29.10
2023-03-28T08:51:59.116Z,29.10
2023-03-28T08:54:54.462Z,29.30
2023-03-28T08:57:29.066Z,29.70
2023-03-28T09:00:13.056Z,29.10
2023-03-28T09:02:40.193Z,28.70
2023-03-28T09:08:19.264Z,28.50
2023-03-28T09:10:55.030Z,28.60
2023-03-28T09:13:53.780Z,28.70
2023-03-28T09:16:32.654Z,29.00
2023-03-28T09:19:47.881Z,29.00
2023-03-28T09:22:44.733Z,29.00
2023-03-28T09:26:01.052Z,28.80
2023-03-28T09:28:48.675Z,29.00
2023-03-28T09:31:20.893Z,28.80
2023-03-28T09:33:49.935Z,28.60
2023-03-28T09:36:22.666Z,28.60
2023-03-28T09:39:01.415Z,28.20
2023-03-28T09:41:44.107Z,28.30
2023-03-28T09:44:14.943Z,28.50
2023-03-28T09:46:45.265Z,28.60
2023-03-28T09:49:20.962Z,28.60
2023-03-28T09:51:49.378Z,28.70
2023-03-28T09:54:16.253Z,28.70
2023-03-28T09:56:47.207Z,28.80
2023-03-28T09:59:27.704Z,28.70
2023-03-28T10:01:56.856Z,28.70
2023-03-28T10:04:30.405Z,28.70
2023-03-28T10:07:19.516Z,28.70
2023-03-28T10:09:54.229Z,28.70
2023-03-28T10:12:36.327Z,28.50
2023-03-28T10:15:04.270Z,28.40
2023-03-28T10:17:37.267Z,28.40
2023-03-28T10:20:15.392Z,28.40
2023-03-28T10:22:44.648Z,28.40
2023-03-28T10:25:29.762Z,28.40
2023-03-28T10:28:00.473Z,28.50
2023-03-28T10:30:30.806Z,28.40
2023-03-28T10:33:16.252Z,28.50
2023-03-28T10:35:47.550Z,28.60
2023-03-28T10:38:18.264Z,28.70
2023-03-28T10:41:01.621Z,28.60
2023-03-28T10:43:39.824Z,28.70
2023-03-28T10:46:18.421Z,28.60
2023-03-28T10:48:56.193Z,28.70
2023-03-28T10:51:25.737Z,28.70
2023-03-28T10:53:55.540Z,28.80
2023-03-28T10:56:29.399Z,28.80
2023-03-28T10:59:04.969Z,28.80
2023-03-28T11:01:59.737Z,28.80
2023-03-28T11:05:03.254Z,28.60
2023-03-28T11:07:45.401Z,28.50
2023-03-28T11:10:48.354Z,28.60
2023-03-28T11:13:18.170Z,28.70
2023-03-28T11:16:06.171Z,28.60
2023-03-28T11:19:03.325Z,28.70
2023-03-28T11:21:41.001Z,28.70
2023-03-28T11:24:40.618Z,28.60
2023-03-28T11:27:16.805Z,28.70
2023-03-28T11:29:49.252Z,28.80
2023-03-28T11:32:22.190Z,28.70
2023-03-28T11:35:15.555Z,28.50
2023-03-28T11:38:17.749Z,28.60
2023-03-28T11:41:01.860Z,28.50
2023-03-28T11:43:37.574Z,28.30
2023-03-28T11:46:26.312Z,28.20
2023-03-28T11:49:06.308Z,28.30
2023-03-28T11:51:39.422Z,28.20
2023-03-28T11:54:20.477Z,28.10
2023-03-28T11:57:05.824Z,28.00
2023-03-28T11:59:57.739Z,28.10
2023-03-28T12:02:31.134Z,28.20
2023-03-28T12:05:05.985Z,28.40
2023-03-28T12:07:41.083Z,28.40
2023-03-28T12:10:19.954Z,28.40
2023-03-28T12:12:57.098Z,28.40
2023-03-28T12:15:56.053Z,28.40
2023-03-28T12:18:50.676Z,28.30
2023-03-28T12:21:27.989Z,28.30
2023-03-28T12:28:22.504Z,28.30
2023-03-28T12:31:18.379Z,28.50
2023-03-28T12:34:21.882Z,28.50
2023-03-28T12:37:04.229Z,28.50
2023-03-28T12:39:43.413Z,28.60
2023-03-28T12:42:15.101Z,28.60
2023-03-28T12:44:52.491Z,28.70
2023-03-28T12:47:24.639Z,28.70
2023-03-28T12:50:14.916Z,28.70
2023-03-28T12:52:45.364Z,28.50
2023-03-28T12:55:26.079Z,28.30
2023-03-28T12:58:10.823Z,28.30
2023-03-28T13:01:08.034Z,28.20
2023-03-28T13:03:57.399Z,28.30
2023-03-28T13:06:44.907Z,28.30
2023-03-28T13:09:44.650Z,28.10
2023-03-28T13:12:48.582Z,28.20
2023-03-28T13:15:16.167Z,28.00
2023-03-28T13:18:09.362Z,27.70
2023-03-28T13:20:45.758Z,27.70
2023-03-28T13:23:15.232Z,27.80
2023-03-28T13:25:52.298Z,27.80
2023-03-28T13:28:22.786Z,27.90
2023-03-28T13:31:08.454Z,27.90
2023-03-28T13:33:38.341Z,27.80
2023-03-28T13:36:05.682Z,27.60
2023-03-28T13:38:45.085Z,27.70
2023-03-28T13:41:35.586Z,27.70
2023-03-28T13:44:13.076Z,27.70
2023-03-28T13:46:46.751Z,27.50
2023-03-28T13:49:30.605Z,27.30
2023-03-28T13:52:14.727Z,27.30
2023-03-28T13:54:41.538Z,27.20
2023-03-28T13:57:15.887Z,27.20
2023-03-28T14:00:04.986Z,27.20
2023-03-28T14:02:41.718Z,27.30
2023-03-28T14:05:23.502Z,27.30
2023-03-28T14:07:51.947Z,27.00
2023-03-28T14:10:30.922Z,26.90
2023-03-28T14:13:03.842Z,27.10
2023-03-28T14:15:37.529Z,27.10
2023-03-28T14:18:04.662Z,27.20
2023-03-28T14:20:33.194Z,27.20
2023-03-28T14:23:01.556Z,27.30
2023-03-28T14:25:30.577Z,27.40
2023-03-28T14:27:57.751Z,27.30
2023-03-28T14:30:28.521Z,27.30
2023-03-28T14:33:07.440Z,27.10
2023-03-28T14:35:36.601Z,26.90
2023-03-28T14:38:13.990Z,26.80
2023-03-28T14:40:43.712Z,26.90
2023-03-28T14:43:12.069Z,26.90
2023-03-28T14:45:47.586Z,26.90
2023-03-28T14:48:19.088Z,26.80
2023-03-28T14:50:49.220Z,26.70
2023-03-28T14:53:28.217Z,26.70
2023-03-28T14:56:01.619Z,26.80
2023-03-28T14:58:29.699Z,26.80
2023-03-28T15:01:01.787Z,26.90
2023-03-28T15:03:35.131Z,26.80
2023-03-28T15:06:03.138Z,26.70
2023-03-28T15:08:38.276Z,26.90
2023-03-28T15:11:29.765Z,27.60
2023-03-28T15:14:11.624Z,27.10
2023-03-28T15:16:44.132Z,27.30
2023-03-28T15:19:25.185Z,27.30
2023-03-28T15:21:59.214Z,27.10
2023-03-28T15:24:27.762Z,26.90
2023-03-28T15:26:59.032Z,26.80
2023-03-28T15:29:26.339Z,26.50
2023-03-28T15:31:58.774Z,26.50
2023-03-28T15:34:27.841Z,26.60
2023-03-28T15:37:03.008Z,26.50
2023-03-28T15:39:32.455Z,26.30
2023-03-28T15:42:23.518Z,26.20
2023-03-28T15:44:59.450Z,26.40
2023-03-28T15:47:30.154Z,26.50
2023-03-28T15:50:04.786Z,26.70
2023-03-28T15:52:34.117Z,26.90
2023-03-28T15:55:02.411Z,26.80
2023-03-28T15:57:30.624Z,26.60
2023-03-28T15:59:58.675Z,26.50
2023-03-28T16:02:25.707Z,26.70
2023-03-28T16:05:10.911Z,26.70
2023-03-28T16:07:43.842Z,26.90
2023-03-28T16:10:13.292Z,27.10
2023-03-28T16:12:40.871Z,27.20
2023-03-28T16:15:09.195Z,27.50
2023-03-28T16:17:36.368Z,27.50
2023-03-28T16:20:16.478Z,27.60
2023-03-28T16:22:44.606Z,27.70
2023-03-28T16:25:12.044Z,27.70
2023-03-28T16:27:39.039Z,27.80
2023-03-28T16:30:24.628Z,27.90
2023-03-28T16:32:51.460Z,27.90
2023-03-28T16:35:18.288Z,27.90
2023-03-28T16:37:45.097Z,27.80
2023-03-28T16:40:12.332Z,27.90
2023-03-28T16:42:39.112Z,27.80
2023-03-28T16:45:06.518Z,27.70
2023-03-28T16:47:33.427Z,27.70
2023-03-28T16:50:00.306Z,27.80
2023-03-28T16:52:29.578Z,27.90
2023-03-28T16:54:57.040Z,27.90
2023-03-28T16:57:23.865Z,27.80
2023-03-28T16:59:50.775Z,27.80
2023-03-28T17:02:17.664Z,27.70
2023-03-28T17:04:50.535Z,27.70
2023-03-28T17:07:18.023Z,27.60
2023-03-28T17:09:44.821Z,27.50
2023-03-28T17:12:11.673Z,27.70
2023-03-28T17:14:38.437Z,27.80
2023-03-28T17:17:05.323Z,27.90
2023-03-28T17:19:32.979Z,28.00
2023-03-28T17:22:00.531Z,28.20
2023-03-28T17:24:29.872Z,28.20
2023-03-28T17:26:56.690Z,28.20
2023-03-28T17:29:24.564Z,28.00
2023-03-28T17:31:52.735Z,27.90
2023-03-28T17:34:20.949Z,27.90
2023-03-28T17:36:48.876Z,27.90
2023-03-28T17:39:15.647Z,28.10
2023-03-28T17:41:42.443Z,28.20
2023-03-28T17:44:09.389Z,28.40
2023-03-28T17:46:37.020Z,28.40
2023-03-28T17:49:04.157Z,28.50
2023-03-28T17:51:31.141Z,29.00
2023-03-28T17:54:00.817Z,28.60
2023-03-28T17:56:27.951Z,28.60
2023-03-28T17:58:54.788Z,28.70
2023-03-28T18:01:22.380Z,28.70
2023-03-28T18:03:49.448Z,28.70
2023-03-28T18:06:16.480Z,28.70
2023-03-28T18:08:44.890Z,28.70
2023-03-28T18:11:14.864Z,28.70
2023-03-28T18:13:42.441Z,28.70
2023-03-28T18:16:12.127Z,28.70
2023-03-28T18:18:40.300Z,28.70
2023-03-28T18:21:11.606Z,28.70
2023-03-28T18:23:38.843Z,28.70
2023-03-28T18:26:06.838Z,28.70
2023-03-28T18:28:34.691Z,28.60
2023-03-28T18:31:15.979Z,28.60
2023-03-28T18:33:43.690Z,28.60
2023-03-28T18:36:12.200Z,28.60
2023-03-28T18:38:43.899Z,28.60
2023-03-28T18:41:12.522Z,28.50
2023-03-28T18:43:41.471Z,28.60
2023-03-28T18:46:09.659Z,28.60
2023-03-28T18:48:36.484Z,28.50
2023-03-28T18:51:06.221Z,28.50
2023-03-28T18:53:34.138Z,28.50
2023-03-28T18:56:01.450Z,28.50
2023-03-28T18:58:28.500Z,28.50
2023-03-28T19:01:00.243Z,28.50
2023-03-28T19:03:29.248Z,28.60
2023-03-28T19:05:58.380Z,28.60
2023-03-28T19:08:26.186Z,28.60
2023-03-28T19:10:54.005Z,28.70
2023-03-28T19:13:21.305Z,28.70
2023-03-28T19:16:01.298Z,28.80
2023-03-28T19:18:28.856Z,28.80
2023-03-28T19:20:56.956Z,28.80
2023-03-28T19:23:24.585Z,28.80
2023-03-28T19:25:51.565Z,28.80
2023-03-28T19:28:19.343Z,28.80
2023-03-28T19:30:46.497Z,28.80
2023-03-28T19:33:13.957Z,28.80
2023-03-28T19:35:42.239Z,28.80
2023-03-28T19:38:09.087Z,28.80
2023-03-28T19:40:36.090Z,28.80
2023-03-28T19:43:03.126Z,28.70
2023-03-28T19:45:30.624Z,28.70
2023-03-28T19:47:57.479Z,28.70
2023-03-28T19:50:24.459Z,28.70
2023-03-28T19:52:51.251Z,28.70
2023-03-28T19:55:18.301Z,28.70
2023-03-28T19:57:45.538Z,28.70
2023-03-28T20:00:12.715Z,28.70
2023-03-28T20:02:39.882Z,28.80
2023-03-28T20:05:07.179Z,28.80
2023-03-28T20:07:33.877Z,28.80
2023-03-28T20:10:00.939Z,28.70
2023-03-28T20:12:27.767Z,28.70
2023-03-28T20:15:22.262Z,28.70
2023-03-28T20:17:49.112Z,28.70
2023-03-28T20:20:16.053Z,28.80
2023-03-28T20:22:43.395Z,28.80
2023-03-28T20:25:10.438Z,28.90
2023-03-28T20:27:37.438Z,28.90
2023-03-28T20:30:05.684Z,29.00
2023-03-28T20:32:32.650Z,29.00
2023-03-28T20:34:59.504Z,29.00
2023-03-28T20:37:27.907Z,29.00
2023-03-28T20:39:55.166Z,29.00
2023-03-28T20:42:22.054Z,29.10
2023-03-28T20:44:48.845Z,29.10
2023-03-28T20:47:22.108Z,29.10
2023-03-28T20:49:54.751Z,29.10
2023-03-28T20:52:21.720Z,29.00
2023-03-28T20:54:48.507Z,29.00
2023-03-28T20:57:15.385Z,29.00
2023-03-28T20:59:42.615Z,29.00
2023-03-28T21:02:10.750Z,29.00
2023-03-28T21:04:37.867Z,29.00
2023-03-28T21:07:05.427Z,29.00
2023-03-28T21:09:32.273Z,29.00
2023-03-28T21:11:59.024Z,29.00
2023-03-28T21:14:26.300Z,29.00
2023-03-28T21:16:54.381Z,29.00
2023-03-28T21:19:21.525Z,29.00
2023-03-28T21:21:48.253Z,29.00
2023-03-28T21:24:14.998Z,28.90
2023-03-28T21:26:41.827Z,28.90
2023-03-28T21:29:09.402Z,28.90
2023-03-28T21:31:37.344Z,28.90
2023-03-28T21:34:04.279Z,28.90
2023-03-28T21:36:31.121Z,28.80
2023-03-28T21:38:58.003Z,28.80
2023-03-28T21:41:27.262Z,28.90
2023-03-28T21:43:54.662Z,28.90
2023-03-28T21:46:22.427Z,28.90
2023-03-28T21:48:49.917Z,28.90
2023-03-28T21:51:17.592Z,28.90
2023-03-28T21:53:44.457Z,28.90
2023-03-28T21:56:16.228Z,28.90
2023-03-28T21:58:43.014Z,28.90
2023-03-28T22:01:13.781Z,28.90
2023-03-28T22:03:40.889Z,28.90
2023-03-28T22:06:08.244Z,28.90
2023-03-28T22:08:35.216Z,29.00
2023-03-28T22:11:04.263Z,29.00
2023-03-28T22:13:31.530Z,29.00
2023-03-28T22:15:59.975Z,29.10
2023-03-28T22:18:28.006Z,29.10
2023-03-28T22:20:55.051Z,29.10
2023-03-28T22:23:23.365Z,29.20
2023-03-28T22:25:52.657Z,29.20
2023-03-28T22:28:24.053Z,29.20
2023-03-28T22:30:54.929Z,29.20
2023-03-28T22:33:23.189Z,29.20
2023-03-28T22:35:50.099Z,29.20
2023-03-28T22:38:17.160Z,29.20
2023-03-28T22:40:43.914Z,29.20
2023-03-28T22:43:10.682Z,29.20
2023-03-28T22:45:37.463Z,29.20
2023-03-28T22:48:04.517Z,29.20
2023-03-28T22:50:33.574Z,29.30
2023-03-28T22:53:02.323Z,29.40
2023-03-28T22:55:29.324Z,29.40
2023-03-28T22:57:56.117Z,29.50
2023-03-28T23:00:23.424Z,29.60
2023-03-28T23:02:51.905Z,29.60
2023-03-28T23:05:19.560Z,29.60
2023-03-28T23:07:46.522Z,29.70
2023-03-28T23:10:16.111Z,29.70
2023-03-28T23:12:43.531Z,29.70
2023-03-28T23:15:10.941Z,29.70
2023-03-28T23:17:38.781Z,29.70
2023-03-28T23:20:14.400Z,29.60
2023-03-28T23:22:42.769Z,29.70
2023-03-28T23:25:12.370Z,29.70
2023-03-28T23:27:39.616Z,29.60
2023-03-28T23:30:07.865Z,29.60
2023-03-28T23:32:34.781Z,29.60
2023-03-28T23:35:01.674Z,29.60
2023-03-28T23:37:28.769Z,29.60
2023-03-28T23:39:56.386Z,29.50
2023-03-28T23:42:24.624Z,29.50
2023-03-28T23:44:52.573Z,29.50
2023-03-28T23:47:20.575Z,29.50
2023-03-28T23:49:47.737Z,29.50
2023-03-28T23:52:16.228Z,29.50
2023-03-28T23:54:44.108Z,29.50
2023-03-28T23:57:10.936Z,29.50
2023-03-28T23:59:37.778Z,29.50
